createdAt,value
2022-10-22T00:01:26.009Z,11.60
2022-10-22T00:03:58.505Z,11.50
2022-10-22T00:06:32.517Z,11.40
2022-10-22T00:09:05.015Z,11.30
2022-10-22T00:11:37.662Z,11.30
2022-10-22T00:14:12.841Z,11.20
2022-10-22T00:16:45.268Z,11.20
2022-10-22T00:19:17.130Z,11.10
2022-10-22T00:21:49.156Z,11.10
2022-10-22T00:24:21.128Z,11.06
2022-10-22T00:26:53.067Z,11.08
2022-10-22T00:29:27.448Z,11.10
2022-10-22T00:32:02.754Z,11.10
2022-10-22T00:34:35.318Z,11.10
2022-10-22T00:37:07.278Z,11.16
2022-10-22T00:39:41.604Z,11.20
2022-10-22T00:42:24.049Z,11.22
2022-10-22T00:45:19.270Z,11.30
2022-10-22T00:47:57.512Z,11.32
2022-10-22T00:50:34.852Z,11.40
2022-10-22T00:53:11.214Z,11.40
2022-10-22T00:55:48.221Z,11.50
2022-10-22T00:58:21.631Z,11.50
2022-10-22T01:00:56.440Z,11.60
2022-10-22T01:03:34.065Z,11.58
2022-10-22T01:06:08.183Z,11.60
2022-10-22T01:08:48.464Z,11.60
2022-10-22T01:11:28.609Z,11.70
2022-10-22T01:14:06.725Z,11.70
2022-10-22T01:16:45.716Z,11.70
2022-10-22T01:19:33.972Z,11.70
2022-10-22T01:22:11.402Z,11.70
2022-10-22T01:24:52.530Z,11.60
2022-10-22T01:27:33.654Z,11.60
2022-10-22T01:30:09.018Z,11.52
2022-10-22T01:32:45.787Z,11.50
2022-10-22T01:35:23.436Z,11.50
2022-10-22T01:37:59.185Z,11.50
2022-10-22T01:40:33.004Z,11.50
2022-10-22T01:43:06.890Z,11.50
2022-10-22T01:45:41.323Z,11.50
2022-10-22T01:48:23.955Z,11.50
2022-10-22T01:51:28.507Z,11.50
2022-10-22T01:54:07.648Z,11.50
2022-10-22T01:56:53.435Z,11.46
2022-10-22T01:59:35.576Z,11.42
2022-10-22T02:02:19.025Z,11.46
2022-10-22T02:04:56.406Z,11.42
2022-10-22T02:07:32.826Z,11.50
2022-10-22T02:10:07.602Z,11.40
2022-10-22T02:12:41.387Z,11.32
2022-10-22T02:15:15.966Z,11.30
2022-10-22T02:17:48.837Z,11.20
2022-10-22T02:20:24.344Z,11.10
2022-10-22T02:22:57.277Z,11.10
2022-10-22T02:25:33.808Z,11.00
2022-10-22T02:28:14.627Z,11.00
2022-10-22T02:30:51.250Z,11.00
2022-10-22T02:33:27.456Z,11.00
2022-10-22T02:36:01.942Z,10.90
2022-10-22T02:38:35.704Z,10.90
2022-10-22T02:41:07.919Z,10.80
2022-10-22T02:43:44.381Z,10.74
2022-10-22T02:46:16.325Z,10.70
2022-10-22T02:48:51.051Z,10.62
2022-10-22T02:51:23.675Z,10.64
2022-10-22T02:53:55.749Z,10.70
2022-10-22T02:56:27.838Z,10.70
2022-10-22T02:58:59.880Z,10.70
2022-10-22T03:01:31.920Z,10.60
2022-10-22T03:04:04.587Z,10.60
2022-10-22T03:06:36.604Z,10.60
2022-10-22T03:09:08.604Z,10.70
2022-10-22T03:11:40.544Z,10.76
2022-10-22T03:14:12.560Z,10.70
2022-10-22T03:16:44.403Z,10.70
2022-10-22T03:19:16.292Z,10.64
2022-10-22T03:21:51.875Z,10.60
2022-10-22T03:24:29.865Z,10.60
2022-10-22T03:27:01.681Z,10.50
2022-10-22T03:29:36.417Z,10.50
2022-10-22T03:32:08.528Z,10.42
2022-10-22T03:34:44.040Z,10.40
2022-10-22T03:37:16.485Z,10.40
2022-10-22T03:39:48.677Z,10.40
2022-10-22T03:42:21.011Z,10.50
2022-10-22T03:44:52.765Z,10.50
2022-10-22T03:47:24.828Z,10.54
2022-10-22T03:49:56.673Z,10.60
2022-10-22T03:52:28.790Z,10.60
2022-10-22T03:55:00.841Z,10.70
2022-10-22T03:57:33.258Z,10.80
2022-10-22T04:00:06.272Z,10.80
2022-10-22T04:02:38.270Z,10.80
2022-10-22T04:05:10.966Z,10.80
2022-10-22T04:07:42.939Z,10.90
2022-10-22T04:10:14.945Z,10.90
2022-10-22T04:12:49.986Z,10.94
2022-10-22T04:15:21.715Z,10.96
2022-10-22T04:17:53.569Z,10.92
2022-10-22T04:20:25.481Z,10.92
2022-10-22T04:23:00.512Z,11.00
2022-10-22T04:25:32.299Z,11.00
2022-10-22T04:28:04.388Z,11.00
2022-10-22T04:30:36.168Z,11.06
2022-10-22T04:33:08.015Z,11.10
2022-10-22T04:35:42.374Z,11.10
2022-10-22T04:38:14.674Z,11.10
2022-10-22T04:40:46.433Z,11.20
2022-10-22T04:43:18.503Z,11.30
2022-10-22T04:45:50.392Z,11.30
2022-10-22T04:48:22.345Z,11.40
2022-10-22T04:50:54.237Z,11.40
2022-10-22T04:53:26.114Z,11.40
2022-10-22T04:56:07.280Z,11.40
2022-10-22T04:58:39.466Z,11.30
2022-10-22T05:01:20.080Z,11.30
2022-10-22T05:03:56.781Z,11.20
2022-10-22T05:06:32.038Z,11.20
2022-10-22T05:09:06.264Z,11.20
2022-10-22T05:11:42.084Z,11.30
2022-10-22T05:14:16.901Z,11.30
2022-10-22T05:16:49.571Z,11.40
2022-10-22T05:19:25.131Z,11.50
2022-10-22T05:22:04.077Z,11.60
2022-10-22T05:24:38.233Z,11.68
2022-10-22T05:27:10.352Z,11.70
2022-10-22T05:29:42.719Z,11.78
2022-10-22T05:32:14.584Z,11.80
2022-10-22T05:34:49.485Z,11.78
2022-10-22T05:37:21.562Z,11.80
2022-10-22T05:40:06.603Z,11.80
2022-10-22T05:42:48.714Z,11.92
2022-10-22T05:45:20.708Z,12.10
2022-10-22T05:47:55.083Z,12.10
2022-10-22T05:50:27.482Z,12.00
2022-10-22T05:53:03.907Z,12.10
2022-10-22T05:55:41.976Z,12.20
2022-10-22T05:58:15.091Z,12.28
2022-10-22T06:00:51.064Z,12.20
2022-10-22T06:03:28.996Z,12.16
2022-10-22T06:06:07.391Z,12.16
2022-10-22T06:08:47.870Z,12.20
2022-10-22T06:11:21.242Z,12.30
2022-10-22T06:13:53.790Z,12.40
2022-10-22T06:16:28.026Z,12.50
2022-10-22T06:19:02.402Z,12.60
2022-10-22T06:21:34.280Z,12.62
2022-10-22T06:24:07.242Z,12.70
2022-10-22T06:26:39.191Z,12.78
2022-10-22T06:29:11.652Z,12.80
2022-10-22T06:31:43.591Z,12.80
2022-10-22T06:34:18.772Z,12.80
2022-10-22T06:36:51.694Z,12.70
2022-10-22T06:39:36.572Z,12.70
2022-10-22T06:42:08.498Z,12.80
2022-10-22T06:44:40.283Z,12.80
2022-10-22T06:47:21.276Z,12.90
2022-10-22T06:49:53.095Z,13.00
2022-10-22T06:52:26.963Z,13.10
2022-10-22T06:54:58.808Z,13.14
2022-10-22T06:57:31.017Z,13.20
2022-10-22T07:00:10.081Z,13.20
2022-10-22T07:02:56.370Z,13.10
2022-10-22T07:05:37.035Z,13.10
2022-10-22T07:08:12.119Z,13.12
2022-10-22T07:10:48.302Z,13.10
2022-10-22T07:13:24.374Z,13.20
2022-10-22T07:16:04.002Z,13.20
2022-10-22T07:18:39.966Z,13.30
2022-10-22T07:21:17.035Z,13.30
2022-10-22T07:23:52.679Z,13.30
2022-10-22T07:26:32.996Z,13.40
2022-10-22T07:29:25.407Z,13.50
2022-10-22T07:32:01.245Z,13.50
2022-10-22T07:34:39.482Z,13.60
2022-10-22T07:37:21.956Z,13.60
2022-10-22T07:39:55.222Z,13.60
2022-10-22T07:42:36.400Z,13.66
2022-10-22T07:45:15.295Z,13.70
2022-10-22T07:48:04.482Z,13.70
2022-10-22T07:50:39.665Z,13.70
2022-10-22T07:53:15.043Z,13.74
2022-10-22T07:56:01.701Z,13.80
2022-10-22T07:58:46.184Z,13.90
2022-10-22T08:01:20.091Z,13.90
2022-10-22T08:03:52.779Z,13.90
2022-10-22T08:06:25.813Z,13.90
2022-10-22T08:08:58.540Z,13.94
2022-10-22T08:11:44.073Z,14.00
2022-10-22T08:14:18.197Z,14.08
2022-10-22T08:16:52.266Z,14.10
2022-10-22T08:19:24.747Z,14.18
2022-10-22T08:22:01.772Z,14.20
2022-10-22T08:24:36.965Z,14.20
2022-10-22T08:27:17.383Z,14.28
2022-10-22T08:29:57.487Z,14.30
2022-10-22T08:32:44.320Z,14.38
2022-10-22T08:35:17.791Z,14.40
2022-10-22T08:37:59.082Z,14.50
2022-10-22T08:40:36.413Z,14.60
2022-10-22T08:43:32.545Z,14.70
2022-10-22T08:46:21.347Z,14.80
2022-10-22T08:49:00.846Z,15.00
2022-10-22T08:51:40.620Z,15.00
2022-10-22T08:54:25.050Z,15.10
2022-10-22T08:57:12.441Z,15.20
2022-10-22T08:59:49.107Z,15.30
2022-10-22T09:03:00.061Z,15.30
2022-10-22T09:05:41.113Z,15.40
2022-10-22T09:08:20.726Z,15.50
2022-10-22T09:10:57.172Z,15.50
2022-10-22T09:13:44.709Z,15.50
2022-10-22T09:16:25.316Z,15.52
2022-10-22T09:19:10.724Z,15.60
2022-10-22T09:21:53.469Z,15.60
2022-10-22T09:24:33.223Z,15.60
2022-10-22T09:27:14.021Z,15.66
2022-10-22T09:29:47.507Z,15.68
2022-10-22T09:32:20.659Z,15.70
2022-10-22T09:34:56.834Z,15.80
2022-10-22T09:37:31.788Z,15.90
2022-10-22T09:40:07.593Z,16.10
2022-10-22T09:42:40.501Z,16.20
2022-10-22T09:45:20.359Z,16.20
2022-10-22T09:48:04.159Z,16.10
2022-10-22T09:50:45.047Z,16.10
2022-10-22T09:53:21.959Z,16.10
2022-10-22T09:55:59.108Z,16.10
2022-10-22T09:58:30.984Z,16.10
2022-10-22T10:01:03.659Z,16.00
2022-10-22T10:03:35.879Z,16.00
2022-10-22T10:06:08.809Z,15.90
2022-10-22T10:08:43.581Z,16.00
2022-10-22T10:11:29.286Z,16.00
2022-10-22T10:14:16.972Z,16.10
2022-10-22T10:16:58.652Z,16.20
2022-10-22T10:19:49.167Z,16.20
2022-10-22T10:22:33.732Z,16.20
2022-10-22T10:25:29.159Z,16.20
2022-10-22T10:28:10.809Z,16.20
2022-10-22T10:30:49.954Z,16.20
2022-10-22T10:33:31.393Z,16.18
2022-10-22T10:36:15.942Z,16.10
2022-10-22T10:38:58.291Z,16.10
2022-10-22T10:41:40.865Z,16.04
2022-10-22T10:44:37.108Z,15.98
2022-10-22T10:47:22.817Z,15.82
2022-10-22T10:50:12.765Z,15.80
2022-10-22T10:52:56.395Z,15.70
2022-10-22T10:55:35.794Z,15.70
2022-10-22T10:58:20.800Z,15.70
2022-10-22T11:00:57.260Z,15.70
2022-10-22T11:04:01.478Z,15.62
2022-10-22T11:06:41.028Z,15.70
2022-10-22T11:09:29.475Z,15.78
2022-10-22T11:12:12.085Z,15.90
2022-10-22T11:14:58.032Z,16.00
2022-10-22T11:17:40.372Z,16.20
2022-10-22T11:20:20.816Z,16.38
2022-10-22T11:23:19.286Z,16.50
2022-10-22T11:25:53.166Z,16.70
2022-10-22T11:28:33.552Z,16.80
2022-10-22T11:31:10.568Z,16.86
2022-10-22T11:33:47.766Z,17.00
2022-10-22T11:36:23.045Z,17.20
2022-10-22T11:38:55.999Z,17.40
2022-10-22T11:41:31.401Z,17.54
2022-10-22T11:44:14.616Z,17.70
2022-10-22T11:46:58.314Z,17.60
2022-10-22T11:49:43.541Z,17.50
2022-10-22T11:52:29.216Z,17.40
2022-10-22T11:55:04.699Z,17.40
2022-10-22T11:57:43.542Z,17.40
2022-10-22T12:00:36.979Z,17.48
2022-10-22T12:03:19.003Z,17.40
2022-10-22T12:06:11.694Z,17.40
2022-10-22T12:08:48.014Z,17.30
2022-10-22T12:11:26.589Z,17.20
2022-10-22T12:14:19.760Z,17.12
2022-10-22T12:16:57.940Z,17.10
2022-10-22T12:19:33.491Z,17.20
2022-10-22T12:22:17.114Z,17.20
2022-10-22T12:24:51.027Z,17.30
2022-10-22T12:27:25.164Z,17.40
2022-10-22T12:29:59.602Z,17.40
2022-10-22T12:32:37.017Z,17.40
2022-10-22T12:35:15.730Z,17.36
2022-10-22T12:37:50.363Z,17.24
2022-10-22T12:40:25.498Z,17.10
2022-10-22T12:42:59.319Z,17.00
2022-10-22T12:45:33.111Z,16.90
2022-10-22T12:48:14.798Z,16.90
2022-10-22T12:50:50.189Z,16.76
2022-10-22T12:53:25.790Z,16.70
2022-10-22T12:56:00.815Z,16.50
2022-10-22T12:58:39.470Z,16.40
2022-10-22T13:01:14.229Z,16.30
2022-10-22T13:03:50.951Z,16.20
2022-10-22T13:06:29.561Z,16.10
2022-10-22T13:09:15.952Z,16.10
2022-10-22T13:11:58.348Z,16.10
2022-10-22T13:14:36.044Z,16.00
2022-10-22T13:17:14.969Z,16.00
2022-10-22T13:19:50.712Z,16.00
2022-10-22T13:22:35.704Z,15.94
2022-10-22T13:25:27.365Z,15.90
2022-10-22T13:28:02.136Z,15.90
2022-10-22T13:30:36.830Z,15.90
2022-10-22T13:33:23.802Z,15.90
2022-10-22T13:36:05.834Z,15.88
2022-10-22T13:38:42.606Z,15.90
2022-10-22T13:41:43.979Z,15.88
2022-10-22T13:44:16.076Z,15.82
2022-10-22T13:46:50.840Z,15.82
2022-10-22T13:49:27.655Z,15.80
2022-10-22T13:52:01.543Z,15.80
2022-10-22T13:54:38.691Z,15.90
2022-10-22T13:57:14.357Z,15.90
2022-10-22T13:59:51.310Z,15.90
2022-10-22T14:02:24.905Z,15.90
2022-10-22T14:05:05.430Z,15.90
2022-10-22T14:07:39.960Z,15.90
2022-10-22T14:10:30.337Z,15.88
2022-10-22T14:13:09.029Z,15.80
2022-10-22T14:15:41.475Z,15.80
2022-10-22T14:18:24.190Z,15.80
2022-10-22T14:21:05.573Z,15.80
2022-10-22T14:23:44.376Z,15.90
2022-10-22T14:26:28.323Z,15.90
2022-10-22T14:29:11.137Z,15.90
2022-10-22T14:31:45.185Z,15.90
2022-10-22T14:34:30.456Z,15.90
2022-10-22T14:37:20.276Z,15.90
2022-10-22T14:40:01.777Z,15.90
2022-10-22T14:42:43.407Z,15.80
2022-10-22T14:45:25.246Z,15.90
2022-10-22T14:47:57.555Z,15.80
2022-10-22T14:50:29.507Z,15.80
2022-10-22T14:53:01.113Z,15.90
2022-10-22T14:55:32.994Z,16.00
2022-10-22T14:58:04.716Z,16.00
2022-10-22T15:00:39.565Z,16.00
2022-10-22T15:03:14.514Z,16.00
2022-10-22T15:06:00.557Z,16.00
2022-10-22T15:08:33.727Z,15.90
2022-10-22T15:11:13.001Z,15.90
2022-10-22T15:13:48.916Z,15.90
2022-10-22T15:16:23.259Z,15.80
2022-10-22T15:18:57.446Z,15.80
2022-10-22T15:21:43.549Z,15.80
2022-10-22T15:24:44.893Z,15.80
2022-10-22T15:27:17.264Z,15.74
2022-10-22T15:29:49.772Z,15.80
2022-10-22T15:32:24.839Z,15.70
2022-10-22T15:35:01.763Z,15.70
2022-10-22T15:37:36.897Z,15.80
2022-10-22T15:40:10.680Z,15.80
2022-10-22T15:42:43.029Z,15.84
2022-10-22T15:45:15.754Z,15.90
2022-10-22T15:47:52.735Z,15.90
2022-10-22T15:50:25.267Z,15.90
2022-10-22T15:52:57.561Z,16.00
2022-10-22T15:55:29.379Z,16.00
2022-10-22T15:58:03.354Z,16.10
2022-10-22T16:00:36.635Z,16.10
2022-10-22T16:03:13.630Z,16.10
2022-10-22T16:05:54.628Z,16.10
2022-10-22T16:08:26.644Z,16.10
2022-10-22T16:10:58.611Z,16.00
2022-10-22T16:13:36.813Z,15.90
2022-10-22T16:16:10.344Z,15.80
2022-10-22T16:18:42.110Z,15.70
2022-10-22T16:21:18.696Z,15.66
2022-10-22T16:23:50.664Z,15.60
2022-10-22T16:26:22.730Z,15.60
2022-10-22T16:28:54.574Z,15.60
2022-10-22T16:31:26.315Z,15.60
2022-10-22T16:33:58.446Z,15.60
2022-10-22T16:36:30.253Z,15.58
2022-10-22T16:39:02.065Z,15.52
2022-10-22T16:41:36.465Z,15.50
2022-10-22T16:44:11.015Z,15.50
2022-10-22T16:46:57.376Z,15.50
2022-10-22T16:49:31.165Z,15.60
2022-10-22T16:52:07.043Z,15.60
2022-10-22T16:54:42.388Z,15.60
2022-10-22T16:57:19.883Z,15.60
2022-10-22T17:00:03.048Z,15.68
2022-10-22T17:02:37.633Z,15.70
2022-10-22T17:05:11.111Z,15.70
2022-10-22T17:07:42.958Z,15.78
2022-10-22T17:10:14.753Z,15.80
2022-10-22T17:12:46.595Z,15.80
2022-10-22T17:15:18.903Z,15.80
2022-10-22T17:17:53.873Z,15.80
2022-10-22T17:20:25.738Z,15.80
2022-10-22T17:22:57.591Z,15.80
2022-10-22T17:25:42.018Z,15.80
2022-10-22T17:28:14.439Z,15.80
2022-10-22T17:30:46.218Z,15.80
2022-10-22T17:33:18.293Z,15.80
2022-10-22T17:35:53.036Z,15.80
2022-10-22T17:38:24.832Z,15.78
2022-10-22T17:40:59.152Z,15.80
2022-10-22T17:43:33.774Z,15.76
2022-10-22T17:46:11.758Z,15.76
2022-10-22T17:49:47.717Z,15.70
2022-10-22T17:52:21.058Z,15.70
2022-10-22T17:54:54.782Z,15.70
2022-10-22T17:57:33.315Z,15.70
2022-10-22T18:00:10.303Z,15.70
2022-10-22T18:57:03.238Z,18.36
2022-10-22T18:59:36.671Z,18.30
2022-10-22T19:02:16.109Z,17.90
2022-10-22T19:04:49.862Z,17.60
2022-10-22T19:07:22.948Z,17.32
2022-10-22T19:09:56.100Z,17.10
2022-10-22T19:12:29.555Z,16.84
2022-10-22T19:15:02.790Z,16.70
2022-10-22T19:17:36.949Z,16.54
2022-10-22T19:20:12.504Z,16.40
2022-10-22T19:22:47.772Z,16.30
2022-10-22T19:25:21.272Z,16.16
2022-10-22T19:27:54.985Z,16.10
2022-10-22T19:30:28.166Z,16.00
2022-10-22T19:33:01.428Z,15.90
2022-10-22T19:35:37.062Z,15.80
2022-10-22T19:38:10.214Z,15.80
2022-10-22T19:40:45.097Z,15.74
2022-10-22T19:43:19.129Z,15.70
2022-10-22T19:45:52.629Z,15.68
2022-10-22T19:48:28.710Z,15.60
2022-10-22T19:51:08.571Z,15.60
2022-10-22T19:53:43.431Z,15.60
2022-10-22T19:56:20.945Z,15.50
2022-10-22T19:58:54.295Z,15.50
2022-10-22T20:01:28.217Z,15.40
2022-10-22T20:04:01.896Z,15.40
2022-10-22T20:06:35.271Z,15.40
2022-10-22T20:09:08.642Z,15.36
2022-10-22T20:11:43.518Z,15.32
2022-10-22T20:14:20.127Z,15.34
2022-10-22T20:17:10.629Z,15.40
2022-10-22T20:19:51.354Z,15.42
2022-10-22T20:22:34.565Z,15.44
2022-10-22T20:28:23.662Z,15.50
2022-10-22T20:30:56.879Z,15.48
2022-10-22T20:33:36.242Z,15.50
2022-10-22T20:36:20.964Z,15.50
2022-10-22T20:39:10.467Z,15.50
2022-10-22T20:41:58.390Z,15.50
2022-10-22T20:44:45.733Z,15.50
2022-10-22T20:47:19.223Z,15.50
2022-10-22T20:50:02.144Z,15.42
2022-10-22T20:52:42.504Z,15.40
2022-10-22T20:58:07.179Z,15.50
2022-10-22T21:00:40.666Z,15.50
2022-10-22T21:03:15.268Z,15.56
2022-10-22T21:05:48.571Z,15.50
2022-10-22T21:08:22.083Z,15.40
2022-10-22T21:11:34.677Z,15.30
2022-10-22T21:14:14.741Z,15.20
2022-10-22T21:17:01.750Z,15.20
2022-10-22T21:20:25.360Z,15.10
2022-10-22T21:23:04.076Z,15.10
2022-10-22T21:25:43.356Z,15.06
2022-10-22T21:28:33.810Z,15.00
2022-10-22T21:31:26.388Z,15.00
2022-10-22T21:34:18.572Z,14.98
2022-10-22T21:36:56.931Z,14.90
2022-10-22T21:39:41.988Z,14.90
2022-10-22T21:42:26.326Z,14.80
2022-10-22T21:45:10.494Z,14.80
2022-10-22T21:47:56.746Z,14.76
2022-10-22T21:50:33.560Z,14.70
2022-10-22T21:53:22.197Z,14.70
2022-10-22T21:56:02.857Z,14.70
2022-10-22T21:58:40.664Z,14.60
2022-10-22T22:01:19.123Z,14.60
2022-10-22T22:04:02.166Z,14.60
2022-10-22T22:06:50.109Z,14.66
2022-10-22T22:09:42.244Z,14.70
2022-10-22T22:12:23.090Z,14.70
2022-10-22T22:15:02.886Z,14.70
2022-10-22T22:17:41.614Z,14.70
2022-10-22T22:20:16.433Z,14.68
2022-10-22T22:22:57.869Z,14.70
2022-10-22T22:25:35.846Z,14.68
2022-10-22T22:28:20.476Z,14.62
2022-10-22T22:30:57.759Z,14.60
2022-10-22T22:33:33.719Z,14.44
2022-10-22T22:36:08.140Z,14.38
2022-10-22T22:38:44.937Z,14.28
2022-10-22T22:41:18.381Z,14.20
2022-10-22T22:43:51.643Z,14.20
2022-10-22T22:46:25.181Z,14.10
2022-10-22T22:48:59.214Z,14.10
2022-10-22T22:51:33.040Z,14.10
2022-10-22T22:54:06.548Z,14.10
2022-10-22T22:56:41.065Z,14.10
2022-10-22T22:59:14.960Z,14.00
2022-10-22T23:01:50.992Z,14.00
2022-10-22T23:04:25.374Z,13.94
2022-10-22T23:06:58.556Z,13.90
2022-10-22T23:09:31.829Z,13.90
2022-10-22T23:12:05.531Z,13.80
2022-10-22T23:14:41.282Z,13.70
2022-10-22T23:17:14.721Z,13.70
2022-10-22T23:19:48.459Z,13.68
2022-10-22T23:22:21.880Z,13.60
2022-10-22T23:24:55.165Z,13.60
2022-10-22T23:27:28.542Z,13.60
2022-10-22T23:30:01.759Z,13.60
2022-10-22T23:32:35.169Z,13.50
2022-10-22T23:35:10.505Z,13.50
2022-10-22T23:37:43.940Z,13.48
2022-10-22T23:40:17.529Z,13.40
2022-10-22T23:42:50.793Z,13.30
2022-10-22T23:45:24.797Z,13.30
2022-10-22T23:47:58.342Z,13.20
2022-10-22T23:50:31.740Z,13.20
2022-10-22T23:53:05.166Z,13.10
2022-10-22T23:55:41.677Z,13.00
2022-10-22T23:58:15.271Z,13.00
